sensor_id;sensor_type;location;lat;lon;timestamp;pressure;altitude;pressure_sealevel;temperature;humidity
26859;BME280;14429;48.346;16.338;2023-01-19T00:00:44;98405.34;;;11.95;52.54
26859;BME280;14429;48.346;16.338;2023-01-19T00:03:09;98410.22;;;12.09;51.86
26859;BME280;14429;48.346;16.338;2023-01-19T00:05:36;98419.84;;;11.92;51.55
26859;BME280;14429;48.346;16.338;2023-01-19T00:08:01;98424.06;;;11.76;51.06
26859;BME280;14429;48.346;16.338;2023-01-19T00:10:27;98413.34;;;11.95;51.42
26859;BME280;14429;48.346;16.338;2023-01-19T00:12:52;98414.16;;;12.05;51.01
26859;BME280;14429;48.346;16.338;2023-01-19T00:15:18;98406.38;;;11.85;49.25
26859;BME280;14429;48.346;16.338;2023-01-19T00:17:43;98413.28;;;11.68;52.27
26859;BME280;14429;48.346;16.338;2023-01-19T00:20:09;98419.06;;;11.73;52.56
26859;BME280;14429;48.346;16.338;2023-01-19T00:22:36;98438.16;;;11.78;52.93
26859;BME280;14429;48.346;16.338;2023-01-19T00:25:02;98431.50;;;11.91;52.78
26859;BME280;14429;48.346;16.338;2023-01-19T00:27:27;98429.69;;;11.92;50.83
26859;BME280;14429;48.346;16.338;2023-01-19T00:29:53;98429.81;;;12.00;51.92
26859;BME280;14429;48.346;16.338;2023-01-19T00:32:19;98439.88;;;12.06;51.30
26859;BME280;14429;48.346;16.338;2023-01-19T00:34:44;98434.16;;;12.01;50.89
26859;BME280;14429;48.346;16.338;2023-01-19T00:37:09;98446.06;;;12.15;50.68
26859;BME280;14429;48.346;16.338;2023-01-19T00:39:36;98445.91;;;12.17;50.36
26859;BME280;14429;48.346;16.338;2023-01-19T00:42:02;98446.50;;;12.11;50.51
26859;BME280;14429;48.346;16.338;2023-01-19T00:44:28;98445.59;;;11.75;50.23
26859;BME280;14429;48.346;16.338;2023-01-19T00:46:53;98440.53;;;11.72;52.00
26859;BME280;14429;48.346;16.338;2023-01-19T00:49:18;98433.38;;;11.72;52.76
26859;BME280;14429;48.346;16.338;2023-01-19T00:51:44;98434.19;;;11.82;52.65
26859;BME280;14429;48.346;16.338;2023-01-19T00:54:09;98430.84;;;11.61;52.54
26859;BME280;14429;48.346;16.338;2023-01-19T00:56:36;98436.94;;;11.45;51.78
26859;BME280;14429;48.346;16.338;2023-01-19T00:59:02;98434.47;;;11.88;51.72
26859;BME280;14429;48.346;16.338;2023-01-19T01:01:28;98427.97;;;12.00;51.20
26859;BME280;14429;48.346;16.338;2023-01-19T01:03:53;98426.81;;;12.03;50.73
26859;BME280;14429;48.346;16.338;2023-01-19T01:06:18;98429.94;;;11.98;50.75
26859;BME280;14429;48.346;16.338;2023-01-19T01:08:44;98437.50;;;12.03;50.54
26859;BME280;14429;48.346;16.338;2023-01-19T01:11:09;98433.63;;;11.88;50.93
26859;BME280;14429;48.346;16.338;2023-01-19T01:13:36;98443.47;;;11.13;46.06
26859;BME280;14429;48.346;16.338;2023-01-19T01:16:02;98441.81;;;11.03;51.02
26859;BME280;14429;48.346;16.338;2023-01-19T01:18:27;98440.25;;;11.65;52.82
26859;BME280;14429;48.346;16.338;2023-01-19T01:20:59;98433.69;;;11.51;52.72
26859;BME280;14429;48.346;16.338;2023-01-19T01:23:25;98443.50;;;11.78;52.09
26859;BME280;14429;48.346;16.338;2023-01-19T01:25:50;98445.31;;;11.68;51.40
26859;BME280;14429;48.346;16.338;2023-01-19T01:28:16;98447.16;;;11.03;45.79
26859;BME280;14429;48.346;16.338;2023-01-19T01:30:42;98446.84;;;11.80;51.26
26859;BME280;14429;48.346;16.338;2023-01-19T01:33:08;98440.38;;;11.92;50.64
26859;BME280;14429;48.346;16.338;2023-01-19T01:35:33;98437.81;;;12.00;50.51
26859;BME280;14429;48.346;16.338;2023-01-19T01:37:59;98434.19;;;11.82;49.03
26859;BME280;14429;48.346;16.338;2023-01-19T01:40:26;98435.38;;;11.52;52.04
26859;BME280;14429;48.346;16.338;2023-01-19T01:42:52;98430.28;;;11.30;51.29
26859;BME280;14429;48.346;16.338;2023-01-19T01:45:28;98442.91;;;11.28;52.55
26859;BME280;14429;48.346;16.338;2023-01-19T01:47:57;98443.50;;;11.59;52.62
26859;BME280;14429;48.346;16.338;2023-01-19T01:50:27;98447.88;;;11.51;52.25
26859;BME280;14429;48.346;16.338;2023-01-19T01:52:57;98469.91;;;11.81;51.49
26859;BME280;14429;48.346;16.338;2023-01-19T01:55:24;98464.75;;;11.52;49.79
26859;BME280;14429;48.346;16.338;2023-01-19T01:57:53;98475.81;;;11.85;50.91
26859;BME280;14429;48.346;16.338;2023-01-19T02:00:20;98471.16;;;11.86;50.66
26859;BME280;14429;48.346;16.338;2023-01-19T02:02:45;98479.44;;;11.93;50.44
26859;BME280;14429;48.346;16.338;2023-01-19T02:05:16;98468.66;;;11.66;50.03
26859;BME280;14429;48.346;16.338;2023-01-19T02:07:47;98478.09;;;11.52;51.54
26859;BME280;14429;48.346;16.338;2023-01-19T02:10:14;98479.84;;;11.04;48.84
26859;BME280;14429;48.346;16.338;2023-01-19T02:12:40;98480.88;;;11.41;52.43
26859;BME280;14429;48.346;16.338;2023-01-19T02:15:14;98463.31;;;11.66;52.31
26859;BME280;14429;48.346;16.338;2023-01-19T02:17:39;98465.16;;;11.57;51.67
26859;BME280;14429;48.346;16.338;2023-01-19T02:20:06;98468.53;;;11.40;51.82
26859;BME280;14429;48.346;16.338;2023-01-19T02:22:39;98472.44;;;11.36;51.32
26859;BME280;14429;48.346;16.338;2023-01-19T02:25:08;98476.38;;;11.32;51.66
26859;BME280;14429;48.346;16.338;2023-01-19T02:27:33;98476.06;;;11.16;51.62
26859;BME280;14429;48.346;16.338;2023-01-19T02:29:59;98476.91;;;11.07;50.41
26859;BME280;14429;48.346;16.338;2023-01-19T02:32:25;98468.34;;;11.13;51.14
26859;BME280;14429;48.346;16.338;2023-01-19T02:34:50;98471.59;;;11.26;52.85
26859;BME280;14429;48.346;16.338;2023-01-19T02:37:17;98470.66;;;10.79;49.17
26859;BME280;14429;48.346;16.338;2023-01-19T02:39:46;98471.72;;;11.15;52.75
26859;BME280;14429;48.346;16.338;2023-01-19T02:42:17;98483.38;;;11.14;53.33
26859;BME280;14429;48.346;16.338;2023-01-19T02:44:47;98483.09;;;11.17;52.66
26859;BME280;14429;48.346;16.338;2023-01-19T02:47:13;98490.13;;;11.37;52.29
26859;BME280;14429;48.346;16.338;2023-01-19T02:49:39;98493.66;;;11.47;51.92
26859;BME280;14429;48.346;16.338;2023-01-19T02:52:05;98494.09;;;11.52;51.35
26859;BME280;14429;48.346;16.338;2023-01-19T02:54:40;98507.41;;;11.33;51.32
26859;BME280;14429;48.346;16.338;2023-01-19T02:57:27;98505.59;;;11.43;51.78
26859;BME280;14429;48.346;16.338;2023-01-19T03:00:11;98493.88;;;11.06;52.36
26859;BME280;14429;48.346;16.338;2023-01-19T03:02:47;98491.53;;;11.22;52.18
26859;BME280;14429;48.346;16.338;2023-01-19T03:05:24;98495.03;;;11.13;49.15
26859;BME280;14429;48.346;16.338;2023-01-19T03:07:58;98491.81;;;11.29;53.14
26859;BME280;14429;48.346;16.338;2023-01-19T03:10:36;98488.38;;;10.80;47.22
26859;BME280;14429;48.346;16.338;2023-01-19T03:13:10;98489.94;;;10.92;49.41
26859;BME280;14429;48.346;16.338;2023-01-19T03:15:42;98484.06;;;11.35;53.00
26859;BME280;14429;48.346;16.338;2023-01-19T03:18:09;98487.50;;;10.79;50.69
26859;BME280;14429;48.346;16.338;2023-01-19T03:20:36;98496.47;;;10.69;52.16
26859;BME280;14429;48.346;16.338;2023-01-19T03:23:07;98502.41;;;10.52;46.69
26859;BME280;14429;48.346;16.338;2023-01-19T03:25:36;98510.47;;;11.19;52.44
26859;BME280;14429;48.346;16.338;2023-01-19T03:28:03;98503.31;;;11.29;51.93
26859;BME280;14429;48.346;16.338;2023-01-19T03:30:33;98508.50;;;11.30;51.73
26859;BME280;14429;48.346;16.338;2023-01-19T03:33:03;98509.44;;;11.02;49.25
26859;BME280;14429;48.346;16.338;2023-01-19T03:35:35;98517.91;;;11.06;52.72
26859;BME280;14429;48.346;16.338;2023-01-19T03:38:04;98531.59;;;10.93;53.24
26859;BME280;14429;48.346;16.338;2023-01-19T03:40:31;98539.69;;;10.82;53.14
26859;BME280;14429;48.346;16.338;2023-01-19T03:42:58;98529.28;;;10.70;52.92
26859;BME280;14429;48.346;16.338;2023-01-19T03:45:24;98533.00;;;10.97;54.18
26859;BME280;14429;48.346;16.338;2023-01-19T03:47:51;98536.34;;;10.80;53.74
26859;BME280;14429;48.346;16.338;2023-01-19T03:50:23;98543.41;;;11.00;53.64
26859;BME280;14429;48.346;16.338;2023-01-19T03:52:59;98556.06;;;11.16;53.07
26859;BME280;14429;48.346;16.338;2023-01-19T03:55:24;98563.13;;;11.17;49.09
26859;BME280;14429;48.346;16.338;2023-01-19T03:57:50;98550.63;;;11.27;50.04
26859;BME280;14429;48.346;16.338;2023-01-19T04:00:16;98561.63;;;11.43;51.64
26859;BME280;14429;48.346;16.338;2023-01-19T04:02:41;98570.78;;;11.50;51.23
26859;BME280;14429;48.346;16.338;2023-01-19T04:05:08;98581.69;;;11.37;51.26
26859;BME280;14429;48.346;16.338;2023-01-19T04:07:34;98576.03;;;11.22;51.17
26859;BME280;14429;48.346;16.338;2023-01-19T04:09:59;98578.63;;;11.42;51.76
26859;BME280;14429;48.346;16.338;2023-01-19T04:12:25;98576.16;;;11.20;51.39
26859;BME280;14429;48.346;16.338;2023-01-19T04:14:50;98570.19;;;11.37;52.48
26859;BME280;14429;48.346;16.338;2023-01-19T04:17:15;98572.28;;;10.95;50.75
26859;BME280;14429;48.346;16.338;2023-01-19T04:19:41;98561.50;;;10.96;51.32
26859;BME280;14429;48.346;16.338;2023-01-19T04:22:08;98565.84;;;11.36;52.92
26859;BME280;14429;48.346;16.338;2023-01-19T04:24:33;98553.34;;;11.46;52.38
26859;BME280;14429;48.346;16.338;2023-01-19T04:26:58;98555.13;;;11.17;52.00
26859;BME280;14429;48.346;16.338;2023-01-19T04:29:24;98552.44;;;11.17;50.93
26859;BME280;14429;48.346;16.338;2023-01-19T04:31:49;98559.00;;;11.52;51.28
26859;BME280;14429;48.346;16.338;2023-01-19T04:34:15;98552.50;;;11.36;49.39
26859;BME280;14429;48.346;16.338;2023-01-19T04:36:40;98555.28;;;11.34;51.34
26859;BME280;14429;48.346;16.338;2023-01-19T04:39:07;98556.75;;;11.48;51.63
26859;BME280;14429;48.346;16.338;2023-01-19T04:41:32;98551.94;;;11.42;51.37
26859;BME280;14429;48.346;16.338;2023-01-19T04:43:58;98551.34;;;11.29;51.65
26859;BME280;14429;48.346;16.338;2023-01-19T04:46:23;98549.38;;;11.22;51.73
26859;BME280;14429;48.346;16.338;2023-01-19T04:48:48;98545.56;;;11.24;52.68
26859;BME280;14429;48.346;16.338;2023-01-19T04:51:14;98545.09;;;11.01;49.45
26859;BME280;14429;48.346;16.338;2023-01-19T04:53:39;98556.41;;;11.32;52.91
26859;BME280;14429;48.346;16.338;2023-01-19T04:56:06;98557.22;;;11.23;52.92
26859;BME280;14429;48.346;16.338;2023-01-19T04:58:32;98561.22;;;11.38;52.29
26859;BME280;14429;48.346;16.338;2023-01-19T05:00:57;98559.47;;;11.18;47.59
26859;BME280;14429;48.346;16.338;2023-01-19T05:03:22;98569.63;;;11.43;51.57
26859;BME280;14429;48.346;16.338;2023-01-19T05:05:48;98581.38;;;11.31;51.17
26859;BME280;14429;48.346;16.338;2023-01-19T05:08:13;98583.69;;;11.45;50.87
26859;BME280;14429;48.346;16.338;2023-01-19T05:10:39;98582.09;;;10.85;48.68
26859;BME280;14429;48.346;16.338;2023-01-19T05:13:06;98585.53;;;11.05;50.43
26859;BME280;14429;48.346;16.338;2023-01-19T05:15:31;98587.75;;;11.01;52.22
26859;BME280;14429;48.346;16.338;2023-01-19T05:17:56;98585.53;;;11.05;51.50
26859;BME280;14429;48.346;16.338;2023-01-19T05:20:22;98586.31;;;10.87;52.08
26859;BME280;14429;48.346;16.338;2023-01-19T05:22:48;98594.50;;;11.04;53.02
26859;BME280;14429;48.346;16.338;2023-01-19T05:25:13;98596.75;;;11.00;52.48
26859;BME280;14429;48.346;16.338;2023-01-19T05:27:39;98602.59;;;10.94;53.35
26859;BME280;14429;48.346;16.338;2023-01-19T05:30:07;98615.84;;;11.04;52.92
26859;BME280;14429;48.346;16.338;2023-01-19T05:32:33;98611.31;;;11.25;52.35
26859;BME280;14429;48.346;16.338;2023-01-19T05:34:58;98614.66;;;10.88;51.53
26859;BME280;14429;48.346;16.338;2023-01-19T05:37:24;98621.97;;;11.25;51.76
26859;BME280;14429;48.346;16.338;2023-01-19T05:39:49;98616.84;;;11.03;48.04
26859;BME280;14429;48.346;16.338;2023-01-19T05:42:15;98620.09;;;11.16;51.25
26859;BME280;14429;48.346;16.338;2023-01-19T05:44:40;98620.09;;;11.16;51.66
26859;BME280;14429;48.346;16.338;2023-01-19T05:47:07;98614.81;;;11.26;51.51
26859;BME280;14429;48.346;16.338;2023-01-19T05:49:32;98610.00;;;11.10;51.99
26859;BME280;14429;48.346;16.338;2023-01-19T05:51:58;98611.13;;;11.17;51.79
26859;BME280;14429;48.346;16.338;2023-01-19T05:54:23;98611.91;;;10.99;50.53
26859;BME280;14429;48.346;16.338;2023-01-19T05:56:49;98605.28;;;10.94;52.79
26859;BME280;14429;48.346;16.338;2023-01-19T05:59:14;98602.34;;;10.97;53.29
26859;BME280;14429;48.346;16.338;2023-01-19T06:01:40;98601.84;;;11.12;53.05
26859;BME280;14429;48.346;16.338;2023-01-19T06:04:06;98608.41;;;10.99;52.61
26859;BME280;14429;48.346;16.338;2023-01-19T06:06:32;98612.56;;;11.21;52.29
26859;BME280;14429;48.346;16.338;2023-01-19T06:08:57;98597.13;;;11.34;51.51
26859;BME280;14429;48.346;16.338;2023-01-19T06:11:23;98603.81;;;11.19;48.11
26859;BME280;14429;48.346;16.338;2023-01-19T06:13:48;98601.59;;;11.24;51.20
26859;BME280;14429;48.346;16.338;2023-01-19T06:16:15;98610.09;;;11.38;50.16
26859;BME280;14429;48.346;16.338;2023-01-19T06:18:40;98617.00;;;11.21;51.45
26859;BME280;14429;48.346;16.338;2023-01-19T06:21:08;98618.06;;;11.29;51.72
26859;BME280;14429;48.346;16.338;2023-01-19T06:23:34;98625.50;;;10.96;50.71
26859;BME280;14429;48.346;16.338;2023-01-19T06:26:00;98632.13;;;11.02;51.34
26859;BME280;14429;48.346;16.338;2023-01-19T06:28:26;98636.53;;;10.82;51.30
26859;BME280;14429;48.346;16.338;2023-01-19T06:30:53;98641.69;;;11.04;52.82
26859;BME280;14429;48.346;16.338;2023-01-19T06:33:19;98638.03;;;11.05;52.92
26859;BME280;14429;48.346;16.338;2023-01-19T06:35:45;98634.00;;;10.81;48.76
26859;BME280;14429;48.346;16.338;2023-01-19T06:38:13;98638.06;;;11.14;52.54
26859;BME280;14429;48.346;16.338;2023-01-19T06:40:38;98632.75;;;11.14;52.15
26859;BME280;14429;48.346;16.338;2023-01-19T06:43:04;98628.25;;;11.24;50.79
26859;BME280;14429;48.346;16.338;2023-01-19T06:45:29;98623.31;;;11.40;50.85
26859;BME280;14429;48.346;16.338;2023-01-19T06:47:54;98619.50;;;11.42;50.73
26859;BME280;14429;48.346;16.338;2023-01-19T06:50:20;98610.72;;;11.31;51.12
26859;BME280;14429;48.346;16.338;2023-01-19T06:52:48;98613.59;;;11.09;51.26
26859;BME280;14429;48.346;16.338;2023-01-19T06:55:15;98605.66;;;10.80;47.11
26859;BME280;14429;48.346;16.338;2023-01-19T06:57:41;98599.56;;;10.69;50.80
26859;BME280;14429;48.346;16.338;2023-01-19T07:00:07;98589.50;;;11.11;51.80
26859;BME280;14429;48.346;16.338;2023-01-19T07:02:33;98585.25;;;11.08;52.03
26859;BME280;14429;48.346;16.338;2023-01-19T07:04:59;98584.84;;;11.03;50.40
26859;BME280;14429;48.346;16.338;2023-01-19T07:07:24;98601.25;;;11.08;52.76
26859;BME280;14429;48.346;16.338;2023-01-19T07:09:50;98617.25;;;11.08;52.51
26859;BME280;14429;48.346;16.338;2023-01-19T07:12:17;98638.59;;;11.08;52.28
26859;BME280;14429;48.346;16.338;2023-01-19T07:14:42;98642.44;;;11.15;52.17
26859;BME280;14429;48.346;16.338;2023-01-19T07:17:08;98649.91;;;11.21;52.42
26859;BME280;14429;48.346;16.338;2023-01-19T07:19:33;98645.16;;;11.25;52.23
26859;BME280;14429;48.346;16.338;2023-01-19T07:21:59;98653.56;;;11.30;51.69
26859;BME280;14429;48.346;16.338;2023-01-19T07:24:24;98659.22;;;11.36;51.50
26859;BME280;14429;48.346;16.338;2023-01-19T07:26:49;98666.06;;;11.29;50.97
26859;BME280;14429;48.346;16.338;2023-01-19T07:29:16;98667.91;;;11.29;50.97
26859;BME280;14429;48.346;16.338;2023-01-19T07:31:42;98683.91;;;11.29;50.66
26859;BME280;14429;48.346;16.338;2023-01-19T07:34:07;98688.69;;;11.34;50.57
26859;BME280;14429;48.346;16.338;2023-01-19T07:36:32;98701.28;;;11.23;51.26
26859;BME280;14429;48.346;16.338;2023-01-19T07:38:58;98695.53;;;11.28;51.29
26859;BME280;14429;48.346;16.338;2023-01-19T07:41:23;98688.66;;;11.25;51.84
26859;BME280;14429;48.346;16.338;2023-01-19T07:43:49;98694.53;;;11.19;52.12
26859;BME280;14429;48.346;16.338;2023-01-19T07:46:16;98706.69;;;11.12;52.34
26859;BME280;14429;48.346;16.338;2023-01-19T07:48:41;98701.75;;;10.99;52.75
26859;BME280;14429;48.346;16.338;2023-01-19T07:51:08;98682.44;;;11.15;52.35
26859;BME280;14429;48.346;16.338;2023-01-19T07:53:33;98667.28;;;11.16;52.01
26859;BME280;14429;48.346;16.338;2023-01-19T07:55:59;98658.75;;;10.92;48.05
26859;BME280;14429;48.346;16.338;2023-01-19T07:58:25;98669.16;;;10.75;53.29
26859;BME280;14429;48.346;16.338;2023-01-19T08:00:50;98664.63;;;10.66;51.16
26859;BME280;14429;48.346;16.338;2023-01-19T08:03:17;98662.41;;;10.31;52.54
26859;BME280;14429;48.346;16.338;2023-01-19T08:05:43;98664.09;;;10.72;51.72
26859;BME280;14429;48.346;16.338;2023-01-19T08:08:08;98667.34;;;10.76;52.12
26859;BME280;14429;48.346;16.338;2023-01-19T08:10:34;98670.16;;;10.74;50.78
26859;BME280;14429;48.346;16.338;2023-01-19T08:12:59;98666.06;;;10.50;49.70
26859;BME280;14429;48.346;16.338;2023-01-19T08:15:25;98670.75;;;10.17;51.66
26859;BME280;14429;48.346;16.338;2023-01-19T08:17:54;98665.66;;;10.34;49.31
26859;BME280;14429;48.346;16.338;2023-01-19T08:20:21;98661.97;;;10.66;51.36
26859;BME280;14429;48.346;16.338;2023-01-19T08:22:47;98674.06;;;10.30;51.91
26859;BME280;14429;48.346;16.338;2023-01-19T08:25:12;98685.38;;;10.43;50.80
26859;BME280;14429;48.346;16.338;2023-01-19T08:27:38;98691.84;;;10.49;52.04
26859;BME280;14429;48.346;16.338;2023-01-19T08:30:04;98699.63;;;10.73;52.11
26859;BME280;14429;48.346;16.338;2023-01-19T08:32:30;98716.50;;;10.82;51.90
26859;BME280;14429;48.346;16.338;2023-01-19T08:34:55;98709.34;;;10.63;48.87
26859;BME280;14429;48.346;16.338;2023-01-19T08:37:22;98715.03;;;10.69;51.58
26859;BME280;14429;48.346;16.338;2023-01-19T08:39:47;98710.78;;;10.87;52.20
26859;BME280;14429;48.346;16.338;2023-01-19T08:42:13;98701.16;;;10.95;51.98
26859;BME280;14429;48.346;16.338;2023-01-19T08:44:38;98717.41;;;10.92;51.58
26859;BME280;14429;48.346;16.338;2023-01-19T08:47:03;98715.16;;;10.88;52.36
26859;BME280;14429;48.346;16.338;2023-01-19T08:49:29;98709.63;;;10.80;52.35
26859;BME280;14429;48.346;16.338;2023-01-19T08:51:54;98713.13;;;10.80;52.12
26859;BME280;14429;48.346;16.338;2023-01-19T08:54:21;98711.16;;;11.03;51.29
26859;BME280;14429;48.346;16.338;2023-01-19T08:56:46;98714.97;;;11.09;50.46
26859;BME280;14429;48.346;16.338;2023-01-19T08:59:12;98697.44;;;10.87;50.74
26859;BME280;14429;48.346;16.338;2023-01-19T09:01:37;98722.50;;;10.95;50.32
26859;BME280;14429;48.346;16.338;2023-01-19T09:04:03;98719.41;;;11.00;50.84
26859;BME280;14429;48.346;16.338;2023-01-19T09:06:28;98725.22;;;10.84;51.09
26859;BME280;14429;48.346;16.338;2023-01-19T09:08:54;98725.59;;;11.00;50.80
26859;BME280;14429;48.346;16.338;2023-01-19T09:11:21;98730.09;;;10.59;47.98
26859;BME280;14429;48.346;16.338;2023-01-19T09:13:46;98737.44;;;10.87;52.03
26859;BME280;14429;48.346;16.338;2023-01-19T09:16:12;98737.88;;;10.51;51.21
26859;BME280;14429;48.346;16.338;2023-01-19T09:18:38;98736.72;;;10.45;51.20
26859;BME280;14429;48.346;16.338;2023-01-19T09:21:03;98741.72;;;10.78;52.65
26859;BME280;14429;48.346;16.338;2023-01-19T09:23:29;98736.47;;;10.88;52.33
26859;BME280;14429;48.346;16.338;2023-01-19T09:25:56;98740.88;;;10.98;51.86
26859;BME280;14429;48.346;16.338;2023-01-19T09:28:23;98734.19;;;11.03;51.78
26859;BME280;14429;48.346;16.338;2023-01-19T09:30:49;98742.69;;;10.98;52.11
26859;BME280;14429;48.346;16.338;2023-01-19T09:33:16;98744.13;;;11.02;51.72
26859;BME280;14429;48.346;16.338;2023-01-19T09:35:43;98748.16;;;10.76;51.49
26859;BME280;14429;48.346;16.338;2023-01-19T09:38:10;98744.00;;;10.83;50.93
26859;BME280;14429;48.346;16.338;2023-01-19T09:40:36;98745.44;;;10.47;47.99
26859;BME280;14429;48.346;16.338;2023-01-19T09:43:12;98748.00;;;10.88;51.26
26859;BME280;14429;48.346;16.338;2023-01-19T09:45:43;98740.75;;;11.00;51.24
26859;BME280;14429;48.346;16.338;2023-01-19T09:48:23;98745.44;;;10.47;51.20
26859;BME280;14429;48.346;16.338;2023-01-19T09:50:50;98741.69;;;10.69;51.37
26859;BME280;14429;48.346;16.338;2023-01-19T09:53:23;98740.56;;;10.72;51.93
26859;BME280;14429;48.346;16.338;2023-01-19T09:55:51;98740.38;;;10.84;51.95
26859;BME280;14429;48.346;16.338;2023-01-19T09:58:17;98739.56;;;10.52;50.52
26859;BME280;14429;48.346;16.338;2023-01-19T10:00:49;98735.50;;;10.69;52.19
26859;BME280;14429;48.346;16.338;2023-01-19T10:03:17;98748.16;;;10.76;52.39
26859;BME280;14429;48.346;16.338;2023-01-19T10:05:45;98740.84;;;10.38;51.53
26859;BME280;14429;48.346;16.338;2023-01-19T10:08:18;98737.72;;;10.84;52.60
26859;BME280;14429;48.346;16.338;2023-01-19T10:10:52;98730.19;;;10.69;52.67
26859;BME280;14429;48.346;16.338;2023-01-19T10:13:24;98736.84;;;10.63;51.93
26859;BME280;14429;48.346;16.338;2023-01-19T10:15:59;98749.47;;;10.61;50.64
26859;BME280;14429;48.346;16.338;2023-01-19T10:18:27;98753.78;;;10.11;52.07
26859;BME280;14429;48.346;16.338;2023-01-19T10:20:56;98743.13;;;10.11;49.68
26859;BME280;14429;48.346;16.338;2023-01-19T10:23:34;98749.91;;;10.15;52.12
26859;BME280;14429;48.346;16.338;2023-01-19T10:26:05;98747.28;;;10.04;46.83
26859;BME280;14429;48.346;16.338;2023-01-19T10:28:32;98742.38;;;10.20;51.08
26859;BME280;14429;48.346;16.338;2023-01-19T10:30:59;98737.56;;;10.45;51.20
26859;BME280;14429;48.346;16.338;2023-01-19T10:33:25;98743.31;;;9.99;50.52
26859;BME280;14429;48.346;16.338;2023-01-19T10:35:51;98739.38;;;10.14;49.50
26859;BME280;14429;48.346;16.338;2023-01-19T10:38:16;98729.78;;;10.22;51.63
26859;BME280;14429;48.346;16.338;2023-01-19T10:40:49;98745.38;;;10.26;52.34
26859;BME280;14429;48.346;16.338;2023-01-19T10:43:44;98737.31;;;10.68;52.49
26859;BME280;14429;48.346;16.338;2023-01-19T10:46:20;98742.28;;;10.42;48.63
26859;BME280;14429;48.346;16.338;2023-01-19T10:48:48;98745.28;;;10.28;51.82
26859;BME280;14429;48.346;16.338;2023-01-19T10:51:15;98749.72;;;10.58;53.12
26859;BME280;14429;48.346;16.338;2023-01-19T10:53:41;98742.88;;;10.45;51.46
26859;BME280;14429;48.346;16.338;2023-01-19T10:56:14;98754.91;;;10.40;52.11
26859;BME280;14429;48.346;16.338;2023-01-19T10:58:40;98760.53;;;10.46;52.89
26859;BME280;14429;48.346;16.338;2023-01-19T11:01:14;98754.66;;;10.43;48.66
26859;BME280;14429;48.346;16.338;2023-01-19T11:03:42;98758.50;;;10.70;52.50
26859;BME280;14429;48.346;16.338;2023-01-19T11:06:19;98751.66;;;10.56;48.62
26859;BME280;14429;48.346;16.338;2023-01-19T11:08:46;98752.97;;;10.82;51.37
26859;BME280;14429;48.346;16.338;2023-01-19T11:11:13;98756.31;;;10.13;48.76
26859;BME280;14429;48.346;16.338;2023-01-19T11:13:39;98744.50;;;10.37;51.94
26859;BME280;14429;48.346;16.338;2023-01-19T11:16:07;98755.41;;;10.34;51.84
26859;BME280;14429;48.346;16.338;2023-01-19T11:18:39;98755.06;;;9.64;50.90
26859;BME280;14429;48.346;16.338;2023-01-19T11:21:08;98755.78;;;9.66;47.77
26859;BME280;14429;48.346;16.338;2023-01-19T11:23:36;98754.34;;;9.62;51.62
26859;BME280;14429;48.346;16.338;2023-01-19T11:26:04;98758.84;;;10.25;50.05
26859;BME280;14429;48.346;16.338;2023-01-19T11:28:32;98754.50;;;10.24;51.84
26859;BME280;14429;48.346;16.338;2023-01-19T11:30:59;98749.41;;;10.21;49.63
26859;BME280;14429;48.346;16.338;2023-01-19T11:33:32;98746.53;;;10.44;53.28
26859;BME280;14429;48.346;16.338;2023-01-19T11:36:13;98747.75;;;10.60;52.63
26859;BME280;14429;48.346;16.338;2023-01-19T11:38:40;98755.38;;;10.14;52.84
26859;BME280;14429;48.346;16.338;2023-01-19T11:41:14;98756.00;;;9.85;49.36
26859;BME280;14429;48.346;16.338;2023-01-19T11:43:40;98763.69;;;9.46;48.90
26859;BME280;14429;48.346;16.338;2023-01-19T11:46:08;98751.75;;;9.82;47.46
26859;BME280;14429;48.346;16.338;2023-01-19T11:48:39;98760.00;;;10.43;52.26
26859;BME280;14429;48.346;16.338;2023-01-19T11:51:13;98761.28;;;10.48;49.74
26859;BME280;14429;48.346;16.338;2023-01-19T11:53:44;98763.94;;;10.17;45.10
26859;BME280;14429;48.346;16.338;2023-01-19T11:56:13;98766.31;;;10.62;50.14
26859;BME280;14429;48.346;16.338;2023-01-19T11:58:41;98757.38;;;10.72;51.96
26859;BME280;14429;48.346;16.338;2023-01-19T12:01:15;98771.56;;;10.52;45.97
26859;BME280;14429;48.346;16.338;2023-01-19T12:03:44;98763.50;;;10.01;43.20
26859;BME280;14429;48.346;16.338;2023-01-19T12:06:14;98767.84;;;10.44;51.95
26859;BME280;14429;48.346;16.338;2023-01-19T12:08:44;98765.25;;;10.53;52.34
26859;BME280;14429;48.346;16.338;2023-01-19T12:11:17;98770.03;;;10.70;51.84
26859;BME280;14429;48.346;16.338;2023-01-19T12:13:45;98763.69;;;10.51;47.33
26859;BME280;14429;48.346;16.338;2023-01-19T12:16:16;98762.84;;;10.50;49.41
26859;BME280;14429;48.346;16.338;2023-01-19T12:18:46;98777.03;;;10.71;52.19
26859;BME280;14429;48.346;16.338;2023-01-19T12:21:13;98769.78;;;10.73;51.90
26859;BME280;14429;48.346;16.338;2023-01-19T12:23:45;98771.00;;;10.69;51.43
26859;BME280;14429;48.346;16.338;2023-01-19T12:26:24;98778.41;;;10.35;49.56
26859;BME280;14429;48.346;16.338;2023-01-19T12:28:51;98778.84;;;10.50;50.83
26859;BME280;14429;48.346;16.338;2023-01-19T12:31:19;98780.72;;;10.39;50.71
26859;BME280;14429;48.346;16.338;2023-01-19T12:33:46;98777.31;;;10.37;45.87
26859;BME280;14429;48.346;16.338;2023-01-19T12:36:34;98771.91;;;10.28;43.33
26859;BME280;14429;48.346;16.338;2023-01-19T12:39:01;98771.94;;;10.48;51.47
26859;BME280;14429;48.346;16.338;2023-01-19T12:41:29;98779.09;;;10.48;50.72
26859;BME280;14429;48.346;16.338;2023-01-19T12:44:21;98782.22;;;10.52;51.02
26859;BME280;14429;48.346;16.338;2023-01-19T12:46:49;98780.16;;;10.76;51.73
26859;BME280;14429;48.346;16.338;2023-01-19T12:49:22;98779.78;;;10.49;48.69
26859;BME280;14429;48.346;16.338;2023-01-19T12:51:51;98779.13;;;10.37;51.26